Weather at Baghdad International Airport / New Al Muthana Air Base

Public forecast

Using degrees Celsius for public forecast. Weather courtesy of forecast.io.

Current aviation weather report (METAR) for Baghdad International Airport / New Al Muthana Air Base

Report is more than 6 hours old.

2022/11/14 15:00 (retrieved 2 years ago)

ORBI 141500Z 24003KT 210V280 CAVOK 22/09 Q1018 NOSIG

Aviation forecast (TAF) for Baghdad International Airport / New Al Muthana Air Base

Forecast is more than 12 hours old.

2023/02/22 18:00 (retrieved 1 year ago)

TAF ORBI 221700Z 2218/2318 32008KT 8000 NSC BECMG 2301/2303 04005KT